createdAt,value
2022-09-01T00:01:53.102Z,5.97
2022-09-01T00:04:25.856Z,6.63
2022-09-01T00:06:54.739Z,7.18
2022-09-01T00:09:23.361Z,8.02
2022-09-01T00:11:53.354Z,9.30
2022-09-01T00:14:30.732Z,7.68
2022-09-01T00:17:04.174Z,7.05
2022-09-01T00:19:33.336Z,6.03
2022-09-01T00:22:00.398Z,6.90
2022-09-01T00:24:28.269Z,6.47
2022-09-01T00:26:56.069Z,6.30
2022-09-01T00:29:24.695Z,6.13
2022-09-01T00:31:51.690Z,6.10
2022-09-01T00:34:18.441Z,6.53
2022-09-01T00:36:45.134Z,5.88
2022-09-01T00:39:13.757Z,6.80
2022-09-01T00:41:43.740Z,7.32
2022-09-01T00:44:14.383Z,6.45
2022-09-01T00:46:47.771Z,6.53
2022-09-01T00:49:19.967Z,6.35
2022-09-01T00:51:49.112Z,6.82
2022-09-01T00:54:24.304Z,7.30
2022-09-01T00:56:53.054Z,7.63
2022-09-01T00:59:26.495Z,7.72
2022-09-01T01:01:55.159Z,7.47
2022-09-01T01:04:23.198Z,7.28
2022-09-01T01:07:01.693Z,7.70
2022-09-01T01:09:33.071Z,7.78
2022-09-01T01:14:32.240Z,8.30
2022-09-01T01:17:01.078Z,9.20
2022-09-01T01:19:55.468Z,9.60
2022-09-01T01:22:52.790Z,10.07
2022-09-01T01:25:22.315Z,8.68
2022-09-01T01:27:49.406Z,8.95
2022-09-01T01:30:18.990Z,8.27
2022-09-01T01:32:47.602Z,9.77
2022-09-01T01:35:16.922Z,10.30
2022-09-01T01:37:46.479Z,10.00
2022-09-01T01:40:18.944Z,9.93
2022-09-01T01:42:48.015Z,9.15
2022-09-01T01:45:18.118Z,8.98
2022-09-01T01:47:53.102Z,9.13
2022-09-01T01:50:26.302Z,9.20
2022-09-01T01:52:58.206Z,9.60
2022-09-01T01:55:28.634Z,9.48
2022-09-01T01:57:56.256Z,9.30
2022-09-01T02:00:30.110Z,9.60
2022-09-01T02:02:58.736Z,10.13
2022-09-01T02:05:36.322Z,9.82
2022-09-01T02:08:07.679Z,10.30
2022-09-01T02:13:08.175Z,9.57
2022-09-01T02:15:43.675Z,10.30
2022-09-01T02:18:16.463Z,10.40
2022-09-01T02:20:44.649Z,9.90
2022-09-01T02:23:12.312Z,9.32
2022-09-01T02:26:05.257Z,8.85
2022-09-01T02:28:34.883Z,9.38
2022-09-01T02:31:03.946Z,10.32
2022-09-01T02:33:32.443Z,8.88
2022-09-01T02:36:02.480Z,8.85
2022-09-01T02:38:29.800Z,9.30
2022-09-01T02:41:02.074Z,9.35
2022-09-01T02:43:29.814Z,9.45
2022-09-01T02:45:59.676Z,9.70
2022-09-01T02:48:34.102Z,10.18
2022-09-01T02:51:04.367Z,10.45
2022-09-01T02:53:34.193Z,10.68
2022-09-01T02:56:02.454Z,9.63
2022-09-01T02:58:32.957Z,9.65
2022-09-01T03:01:00.411Z,10.00
2022-09-01T03:03:29.675Z,9.20
2022-09-01T03:05:56.398Z,9.43
2022-09-01T03:08:24.467Z,9.27
2022-09-01T03:10:53.929Z,8.70
2022-09-01T03:13:27.322Z,8.50
2022-09-01T03:15:53.941Z,9.52
2022-09-01T03:18:21.250Z,8.82
2022-09-01T03:20:50.948Z,9.48
2022-09-01T03:23:19.334Z,9.52
2022-09-01T03:25:47.727Z,9.40
2022-09-01T03:28:15.527Z,9.07
2022-09-01T03:30:49.758Z,9.75
2022-09-01T03:33:19.034Z,9.30
2022-09-01T03:35:46.503Z,9.07
2022-09-01T03:38:24.289Z,8.63
2022-09-01T03:41:02.002Z,9.23
2022-09-01T03:43:36.113Z,9.13
2022-09-01T03:46:03.349Z,9.30
2022-09-01T03:48:32.195Z,9.13
2022-09-01T03:51:03.169Z,9.48
2022-09-01T03:53:36.657Z,9.10
2022-09-01T03:56:04.454Z,9.70
2022-09-01T03:58:31.782Z,9.80
2022-09-01T04:01:02.862Z,10.18
2022-09-01T04:06:00.001Z,10.73
2022-09-01T04:08:32.799Z,10.98
2022-09-01T04:11:05.142Z,9.07
2022-09-01T04:13:36.251Z,8.80
2022-09-01T04:16:10.416Z,8.60
2022-09-01T04:18:39.966Z,9.15
2022-09-01T04:21:08.065Z,9.18
2022-09-01T04:23:36.977Z,8.55
2022-09-01T04:26:08.929Z,9.02
2022-09-01T04:28:39.190Z,8.82
2022-09-01T04:31:09.170Z,9.80
2022-09-01T04:33:39.759Z,10.20
2022-09-01T04:36:14.236Z,9.68
2022-09-01T04:38:40.806Z,9.35
2022-09-01T04:41:09.375Z,9.15
2022-09-01T04:43:36.286Z,9.05
2022-09-01T04:46:03.328Z,9.27
2022-09-01T04:48:31.692Z,9.52
2022-09-01T04:50:58.630Z,9.05
2022-09-01T04:53:27.602Z,8.63
2022-09-01T04:55:55.334Z,8.75
2022-09-01T04:58:22.334Z,9.55
2022-09-01T05:00:52.237Z,10.68
2022-09-01T05:03:23.419Z,8.98
2022-09-01T05:05:50.518Z,9.35
2022-09-01T05:08:23.678Z,8.88
2022-09-01T05:10:55.449Z,8.70
2022-09-01T05:13:23.511Z,9.20
2022-09-01T05:16:02.484Z,9.95
2022-09-01T05:18:29.494Z,8.30
2022-09-01T05:20:57.458Z,8.05
2022-09-01T05:23:26.417Z,8.07
2022-09-01T05:25:54.833Z,8.00
2022-09-01T05:28:25.193Z,7.97
2022-09-01T05:30:54.264Z,7.90
2022-09-01T05:33:22.074Z,8.32
2022-09-01T05:35:55.512Z,7.90
2022-09-01T05:38:24.131Z,8.43
2022-09-01T05:41:08.578Z,8.18
2022-09-01T05:43:36.971Z,8.10
2022-09-01T05:46:08.530Z,8.60
2022-09-01T05:48:39.714Z,9.10
2022-09-01T05:53:58.883Z,9.40
2022-09-01T06:01:45.672Z,13.43
2022-09-01T06:04:16.026Z,13.50
2022-09-01T06:07:06.179Z,11.20
2022-09-01T06:09:33.510Z,13.43
2022-09-01T06:12:02.757Z,14.27
2022-09-01T06:14:29.414Z,14.05
2022-09-01T06:16:56.330Z,11.98
2022-09-01T06:19:23.122Z,12.25
2022-09-01T06:21:49.957Z,14.50
2022-09-01T06:24:18.012Z,14.40
2022-09-01T06:26:46.446Z,14.35
2022-09-01T06:29:15.626Z,14.70
2022-09-01T06:31:51.741Z,13.57
2022-09-01T06:34:19.810Z,13.57
2022-09-01T06:36:49.544Z,12.40
2022-09-01T06:39:22.111Z,12.93
2022-09-01T06:41:52.577Z,13.10
2022-09-01T06:44:22.898Z,12.35
2022-09-01T06:46:53.129Z,11.60
2022-09-01T06:49:21.491Z,12.37
2022-09-01T06:51:49.590Z,11.73
2022-09-01T06:54:19.093Z,12.88
2022-09-01T06:56:51.750Z,11.60
2022-09-01T06:59:20.885Z,12.43
2022-09-01T07:01:49.022Z,11.93
2022-09-01T07:04:21.396Z,12.50
2022-09-01T07:07:00.243Z,12.30
2022-09-01T07:09:38.982Z,13.27
2022-09-01T07:12:27.755Z,12.35
2022-09-01T07:17:43.090Z,12.23
2022-09-01T07:20:27.185Z,12.15
2022-09-01T07:23:04.470Z,12.15
2022-09-01T07:26:00.325Z,12.50
2022-09-01T07:28:36.146Z,13.13
2022-09-01T07:33:55.765Z,14.55
2022-09-01T07:45:27.367Z,13.75
2022-09-01T07:47:55.558Z,13.27
2022-09-01T07:50:39.712Z,14.88
2022-09-01T07:53:09.931Z,14.57
2022-09-01T07:55:41.215Z,14.57
2022-09-01T07:58:08.516Z,13.90
2022-09-01T08:00:35.246Z,15.23
2022-09-01T08:03:01.984Z,14.15
2022-09-01T08:05:28.879Z,14.27
2022-09-01T08:07:55.637Z,14.30
2022-09-01T08:10:22.441Z,14.10
2022-09-01T08:12:56.288Z,14.07
2022-09-01T08:15:41.386Z,13.57
2022-09-01T08:18:14.380Z,13.25
2022-09-01T08:20:45.406Z,13.02
2022-09-01T08:23:14.787Z,13.02
2022-09-01T08:25:42.727Z,12.63
2022-09-01T08:28:10.112Z,13.57
2022-09-01T08:30:40.229Z,12.60
2022-09-01T08:33:11.123Z,12.90
2022-09-01T08:35:39.923Z,11.68
2022-09-01T08:38:06.926Z,12.93
2022-09-01T08:40:34.396Z,12.25
2022-09-01T08:43:14.600Z,11.95
2022-09-01T08:45:57.871Z,12.23
2022-09-01T08:49:23.559Z,12.02
2022-09-01T08:51:38.284Z,12.20
2022-09-01T08:54:15.687Z,12.15
2022-09-01T08:56:47.305Z,12.52
2022-09-01T08:59:15.854Z,12.68
2022-09-01T09:02:02.534Z,12.38
2022-09-01T09:04:51.022Z,13.18
2022-09-01T09:08:10.323Z,13.55
2022-09-01T09:11:00.089Z,13.38
2022-09-01T09:13:50.079Z,12.43
2022-09-01T09:16:21.717Z,12.80
2022-09-01T09:19:00.908Z,12.45
2022-09-01T09:21:35.440Z,12.13
2022-09-01T09:24:47.055Z,13.25
2022-09-01T09:27:42.301Z,12.70
2022-09-01T09:30:12.791Z,12.45
2022-09-01T09:35:45.163Z,12.50
2022-09-01T09:38:24.325Z,13.10
2022-09-01T09:41:19.870Z,11.38
2022-09-01T09:43:59.391Z,12.07
2022-09-01T09:46:28.096Z,12.30
2022-09-01T09:49:09.172Z,11.60
2022-09-01T09:51:37.878Z,12.55
2022-09-01T09:54:25.565Z,11.93
2022-09-01T09:57:22.501Z,11.93
2022-09-01T10:00:06.482Z,11.20
2022-09-01T10:02:38.940Z,11.98
2022-09-01T10:05:24.952Z,12.68
2022-09-01T10:07:52.872Z,12.35
2022-09-01T10:10:57.834Z,12.70
2022-09-01T10:13:29.027Z,12.82
2022-09-01T10:15:59.704Z,11.80
2022-09-01T10:18:35.292Z,13.48
2022-09-01T10:21:08.447Z,12.63
2022-09-01T10:23:37.710Z,13.02
2022-09-01T10:26:14.690Z,12.50
2022-09-01T10:29:12.179Z,12.38
2022-09-01T10:31:41.083Z,11.75
2022-09-01T10:34:13.393Z,11.15
2022-09-01T10:36:42.703Z,11.07
2022-09-01T10:39:22.204Z,11.57
2022-09-01T10:41:59.791Z,10.55
2022-09-01T10:44:34.097Z,10.55
2022-09-01T10:47:13.599Z,10.85
2022-09-01T10:49:47.184Z,10.63
2022-09-01T10:52:43.248Z,9.57
2022-09-01T10:55:26.871Z,9.48
2022-09-01T10:59:30.279Z,10.02
2022-09-01T11:03:53.366Z,8.63
2022-09-01T11:10:11.825Z,9.07
2022-09-01T11:13:22.883Z,9.23
2022-09-01T11:15:50.393Z,9.10
2022-09-01T11:18:29.407Z,8.82
2022-09-01T11:21:15.083Z,9.23
2022-09-01T11:23:41.714Z,8.65
2022-09-01T11:26:33.038Z,9.32
2022-09-01T11:29:01.187Z,9.10
2022-09-01T11:31:38.223Z,9.32
2022-09-01T11:34:13.093Z,8.80
2022-09-01T11:36:49.205Z,8.95
2022-09-01T11:39:26.729Z,9.07
2022-09-01T11:42:03.504Z,8.25
2022-09-01T11:44:37.093Z,9.40
2022-09-01T11:47:13.520Z,9.15
2022-09-01T11:50:02.177Z,9.50
2022-09-01T11:52:32.520Z,9.40
2022-09-01T11:54:59.459Z,9.27
2022-09-01T11:57:38.180Z,8.50
2022-09-01T12:00:11.115Z,8.90
2022-09-01T12:02:45.465Z,9.00
2022-09-01T12:05:35.177Z,7.75
2022-09-01T12:08:05.470Z,8.73
2022-09-01T12:10:40.252Z,9.10
2022-09-01T12:13:10.674Z,8.40
2022-09-01T12:16:07.019Z,7.60
2022-09-01T12:18:37.226Z,8.68
2022-09-01T12:21:07.766Z,8.35
2022-09-01T12:23:40.301Z,8.57
2022-09-01T12:26:10.414Z,8.88
2022-09-01T12:28:41.210Z,8.57
2022-09-01T12:31:14.660Z,8.50
2022-09-01T12:33:43.622Z,8.57
2022-09-01T12:36:28.953Z,8.52
2022-09-01T12:39:17.369Z,7.93
2022-09-01T12:41:48.520Z,7.97
2022-09-01T12:44:29.984Z,7.90
2022-09-01T12:47:07.910Z,8.20
2022-09-01T12:49:50.840Z,7.60
2022-09-01T12:52:25.882Z,7.38
2022-09-01T12:55:07.929Z,8.23
2022-09-01T12:57:45.158Z,7.40
2022-09-01T13:00:12.490Z,7.10
2022-09-01T13:02:45.253Z,6.57
2022-09-01T13:05:32.759Z,6.57
2022-09-01T13:08:04.967Z,6.65
2022-09-01T13:10:38.627Z,6.60
2022-09-01T13:13:07.362Z,6.30
2022-09-01T13:15:35.938Z,6.45
2022-09-01T13:18:03.381Z,6.68
2022-09-01T13:20:30.770Z,5.97
2022-09-01T13:22:57.495Z,6.32
2022-09-01T13:25:24.758Z,5.70
2022-09-01T13:27:54.721Z,5.88
2022-09-01T13:30:25.013Z,5.75
2022-09-01T13:35:38.957Z,6.25
2022-09-01T13:38:05.651Z,6.47
2022-09-01T13:40:32.350Z,5.85
2022-09-01T13:42:59.270Z,6.20
2022-09-01T13:45:26.082Z,6.15
2022-09-01T13:53:28.810Z,6.10
2022-09-01T13:58:22.295Z,6.05
2022-09-01T14:00:49.069Z,6.28
2022-09-01T14:03:19.851Z,5.85
2022-09-01T14:05:49.707Z,5.88
2022-09-01T14:08:20.806Z,6.47
2022-09-01T14:10:50.851Z,5.80
2022-09-01T14:13:21.239Z,5.40
2022-09-01T14:15:49.116Z,5.60
2022-09-01T14:18:17.135Z,5.53
2022-09-01T14:20:46.973Z,5.85
2022-09-01T14:23:15.093Z,4.75
2022-09-01T14:25:51.964Z,5.15
2022-09-01T14:28:20.984Z,5.00
2022-09-01T14:33:16.680Z,4.72
2022-09-01T14:35:47.202Z,4.45
2022-09-01T14:38:14.888Z,4.70
2022-09-01T14:40:43.370Z,4.53
2022-09-01T14:43:14.131Z,4.10
2022-09-01T14:45:45.819Z,4.10
2022-09-01T14:48:14.862Z,4.03
2022-09-01T14:50:44.178Z,4.40
2022-09-01T14:53:12.279Z,4.75
2022-09-01T14:55:39.017Z,4.13
2022-09-01T14:58:05.790Z,3.95
2022-09-01T15:00:35.103Z,3.45
2022-09-01T15:03:01.949Z,3.60
2022-09-01T15:05:28.680Z,3.30
2022-09-01T15:07:55.377Z,3.60
2022-09-01T15:10:25.786Z,3.42
2022-09-01T15:12:57.777Z,3.53
2022-09-01T15:15:26.097Z,3.65
2022-09-01T15:17:53.286Z,3.40
2022-09-01T15:20:38.685Z,3.17
2022-09-01T15:23:06.551Z,3.22
2022-09-01T15:25:34.061Z,3.33
2022-09-01T15:28:01.298Z,3.70
2022-09-01T15:30:28.444Z,3.75
2022-09-01T15:32:55.451Z,3.17
2022-09-01T15:35:22.904Z,3.25
2022-09-01T15:37:51.688Z,3.30
2022-09-01T15:40:19.768Z,3.30
2022-09-01T15:42:46.665Z,3.47
2022-09-01T15:45:17.884Z,3.30
2022-09-01T15:47:45.823Z,3.65
2022-09-01T15:50:20.942Z,3.65
2022-09-01T15:52:54.866Z,3.50
2022-09-01T15:55:40.803Z,3.45
2022-09-01T15:58:08.371Z,3.88
2022-09-01T16:00:35.389Z,3.33
2022-09-01T16:03:02.725Z,4.03
2022-09-01T16:05:30.794Z,3.40
2022-09-01T16:07:58.833Z,3.58
2022-09-01T16:10:25.595Z,3.50
2022-09-01T16:12:52.589Z,3.53
2022-09-01T16:15:22.240Z,3.45
2022-09-01T16:18:01.377Z,5.20
2022-09-01T16:20:38.633Z,4.10
2022-09-01T16:23:20.700Z,4.20
2022-09-01T16:25:48.157Z,5.45
2022-09-01T16:28:38.118Z,4.40
2022-09-01T16:31:12.286Z,4.25
2022-09-01T16:33:49.770Z,4.68
2022-09-01T16:36:49.119Z,5.05
2022-09-01T16:39:40.441Z,5.65
2022-09-01T16:42:18.523Z,5.78
2022-09-01T16:44:51.346Z,4.45
2022-09-01T16:48:00.295Z,4.10
2022-09-01T16:50:38.712Z,4.20
2022-09-01T16:53:35.786Z,3.88
2022-09-01T16:56:25.448Z,3.88
2022-09-01T16:59:03.323Z,4.00
2022-09-01T17:01:52.902Z,4.57
2022-09-01T17:04:37.082Z,4.32
2022-09-01T17:07:32.219Z,3.92
2022-09-01T17:10:34.990Z,4.28
2022-09-01T17:13:17.017Z,4.30
2022-09-01T17:15:49.415Z,4.15
2022-09-01T17:18:34.486Z,4.38
2022-09-01T17:21:13.978Z,4.45
2022-09-01T17:24:19.349Z,4.22
2022-09-01T17:26:50.709Z,4.20
2022-09-01T17:29:25.943Z,4.30
2022-09-01T17:32:13.929Z,4.25
2022-09-01T17:34:59.666Z,4.63
2022-09-01T17:37:51.634Z,4.30
2022-09-01T17:40:33.242Z,4.70
2022-09-01T17:43:06.153Z,5.38
2022-09-01T17:45:37.202Z,4.90
2022-09-01T17:48:18.116Z,4.63
2022-09-01T17:51:06.452Z,4.32
2022-09-01T17:53:43.357Z,4.53
2022-09-01T17:56:28.934Z,4.30
2022-09-01T17:59:14.342Z,4.65
2022-09-01T18:02:05.830Z,4.70
2022-09-01T18:04:52.532Z,4.30
2022-09-01T18:07:43.634Z,4.53
2022-09-01T18:10:14.944Z,4.80
2022-09-01T18:12:44.020Z,4.97
2022-09-01T18:15:19.729Z,4.30
2022-09-01T18:18:14.618Z,4.28
2022-09-01T18:20:46.752Z,4.35
2022-09-01T18:23:18.794Z,4.22
2022-09-01T18:25:57.618Z,4.40
2022-09-01T18:28:24.276Z,3.95
2022-09-01T18:31:00.904Z,4.25
2022-09-01T18:33:35.475Z,4.20
2022-09-01T18:36:35.575Z,4.15
2022-09-01T18:39:12.895Z,4.13
2022-09-01T18:42:26.891Z,4.55
2022-09-01T18:44:53.909Z,3.97
2022-09-01T18:47:32.478Z,4.90
2022-09-01T18:50:08.209Z,4.68
2022-09-01T18:52:47.681Z,5.30
2022-09-01T18:55:50.498Z,4.75
2022-09-01T18:58:43.074Z,5.32
2022-09-01T19:01:29.123Z,4.95
2022-09-01T19:04:18.799Z,4.43
2022-09-01T19:06:59.879Z,4.72
2022-09-01T19:12:14.917Z,5.22
2022-09-01T19:15:10.126Z,4.90
2022-09-01T19:18:04.093Z,4.75
2022-09-01T19:20:52.283Z,5.95
2022-09-01T19:23:25.153Z,7.10
2022-09-01T19:25:58.645Z,4.70
2022-09-01T19:28:31.956Z,6.18
2022-09-01T19:31:23.817Z,5.38
2022-09-01T19:33:59.406Z,4.53
2022-09-01T19:36:36.403Z,4.72
2022-09-01T19:39:06.824Z,4.80
2022-09-01T19:41:43.331Z,5.28
2022-09-01T19:44:34.053Z,5.40
2022-09-01T19:47:07.797Z,5.35
2022-09-01T19:49:56.781Z,4.90
2022-09-01T19:52:39.978Z,4.90
2022-09-01T19:55:11.485Z,4.90
2022-09-01T19:57:50.370Z,5.30
2022-09-01T20:01:01.368Z,4.88
2022-09-01T20:03:42.796Z,4.75
2022-09-01T20:08:54.905Z,4.63
2022-09-01T20:11:44.901Z,5.00
2022-09-01T20:14:27.400Z,5.10
2022-09-01T20:17:01.007Z,4.95
2022-09-01T20:19:41.234Z,4.78
2022-09-01T20:22:45.875Z,4.70
2022-09-01T20:25:22.402Z,4.70
2022-09-01T20:28:12.674Z,4.50
2022-09-01T20:30:55.231Z,4.55
2022-09-01T20:33:30.957Z,5.07
2022-09-01T20:36:08.829Z,5.10
2022-09-01T20:39:19.154Z,4.80
2022-09-01T20:42:04.646Z,4.82
2022-09-01T20:44:57.277Z,4.82
2022-09-01T20:47:27.213Z,4.80
2022-09-01T20:49:54.195Z,5.07
2022-09-01T20:52:56.210Z,4.80
2022-09-01T20:56:04.422Z,5.22
2022-09-01T20:58:37.351Z,5.10
2022-09-01T21:01:16.830Z,5.43
2022-09-01T21:03:48.333Z,4.63
2022-09-01T21:06:43.522Z,4.80
2022-09-01T21:09:18.938Z,5.07
2022-09-01T21:11:57.565Z,5.13
2022-09-01T21:14:37.135Z,4.95
2022-09-01T21:17:17.547Z,4.70
2022-09-01T21:22:22.424Z,5.10
2022-09-01T21:24:49.418Z,5.40
2022-09-01T21:27:22.547Z,4.53
2022-09-01T21:29:52.642Z,5.20
2022-09-01T21:32:19.758Z,5.18
2022-09-01T21:34:47.516Z,4.88
2022-09-01T21:37:14.615Z,5.18
2022-09-01T21:39:41.370Z,5.50
2022-09-01T21:42:10.752Z,5.35
2022-09-01T21:44:38.718Z,5.45
2022-09-01T21:47:05.679Z,5.13
2022-09-01T21:49:33.359Z,4.97
2022-09-01T21:52:00.551Z,5.63
2022-09-01T21:54:27.204Z,5.35
2022-09-01T21:56:54.181Z,5.70
2022-09-01T21:59:21.011Z,5.50
2022-09-01T22:01:48.592Z,5.60
2022-09-01T22:04:15.380Z,5.85
2022-09-01T22:06:42.363Z,6.03
2022-09-01T22:09:20.315Z,5.60
2022-09-01T22:11:49.857Z,5.72
2022-09-01T22:14:16.645Z,5.72
2022-09-01T22:16:43.360Z,5.07
2022-09-01T22:19:10.043Z,5.70
2022-09-01T22:21:37.807Z,5.90
2022-09-01T22:24:05.810Z,6.20
2022-09-01T22:26:33.761Z,5.50
2022-09-01T22:29:02.625Z,5.97
2022-09-01T22:31:31.843Z,6.25
2022-09-01T22:33:58.769Z,5.95
2022-09-01T22:36:32.107Z,6.18
2022-09-01T22:38:59.798Z,6.13
2022-09-01T22:41:28.657Z,6.10
2022-09-01T22:43:56.779Z,6.20
2022-09-01T22:46:24.727Z,6.38
2022-09-01T22:48:51.562Z,6.07
2022-09-01T22:51:19.030Z,5.95
2022-09-01T22:53:46.810Z,6.05
2022-09-01T22:56:28.046Z,6.28
2022-09-01T22:59:01.230Z,6.75
2022-09-01T23:01:31.623Z,7.10
2022-09-01T23:04:01.901Z,6.72
2022-09-01T23:06:29.906Z,6.88
2022-09-01T23:08:58.031Z,6.68
2022-09-01T23:11:26.323Z,7.10
2022-09-01T23:13:53.974Z,7.03
2022-09-01T23:16:22.688Z,7.13
2022-09-01T23:18:51.115Z,6.85
2022-09-01T23:21:21.145Z,7.10
2022-09-01T23:23:48.096Z,7.22
2022-09-01T23:26:22.393Z,6.55
2022-09-01T23:28:49.617Z,7.35
2022-09-01T23:31:20.229Z,7.38
2022-09-01T23:33:48.769Z,7.55
2022-09-01T23:36:18.696Z,6.88
2022-09-01T23:38:47.007Z,7.18
2022-09-01T23:41:23.041Z,7.47
2022-09-01T23:43:51.114Z,8.38
2022-09-01T23:46:30.056Z,8.30
2022-09-01T23:48:57.085Z,8.32
2022-09-01T23:51:24.885Z,7.80
2022-09-01T23:53:52.126Z,8.48
2022-09-01T23:56:22.331Z,8.35
2022-09-01T23:58:49.378Z,8.80
